Weather observations for the past three days for
Burlington - Carson County Airport
Metric (Imperial)
Date Time (mdt) Wind (kph) Vis. (km) Weather Sky Cond. Temperature (ºC) Relative Humidity Wind Chill (°C) Heat Index (°C) Pressure Precipitation (cm)
Air Dwpt 6 hour altimeter (cm) sea level (mb) 1 hr 3 hr 6 hr
Max. Min.
05 00:53 S 28 16.09 Fair CLR 22.2 13.9 59% 76.28 1009.9
04 23:53 S 19 16.09 Fair CLR 22.2 12.8 34.4 21.7 55% 76.28 1010.1
04 22:53 S 20 16.09 Fair CLR 22.8 12.8 53% 76.25 1009.9
04 21:53 S 20 16.09 Fair CLR 23.3 13.3 54% 76.28 1010.4
04 20:53 S 15 16.09 Fair CLR 22.2 12.8 55% 76.2 1010.1
04 19:53 S 15 16.09 Fair CLR 26.7 12.2 41% 27 76.12 1009.1
04 18:53 S 30 G 56 16.09 Fair CLR 30.6 11.7 31% 29 76.12 1008.6
04 17:53 SE 22 G 37 16.09 Fair CLR 35 10 36.1 33.3 22% 33 76.07 1007.7
04 16:53 S 15 G 39 16.09 A Few Clouds FEW120 34.4 8.9 21% 32 76.07 1007.4
04 15:53 S 11 16.09 Fair CLR 35 8.3 19% 33 76.05 1007.2
04 14:53 SW 15 16.09 Fair CLR 35.6 7.2 17% 33 76.1 1007.7
04 13:53 SW 20 G 30 16.09 Fair CLR 35 6.1 17% 33 76.12 1008.1
04 12:53 S 19 G 31 16.09 Fair CLR 36.1 6.7 16% 34 76.15 1008.1
04 11:53 Vrbl 7 16.09 Fair CLR 33.9 5.6 35 17.8 17% 32 76.17 1009.0
04 10:53 SW 13 16.09 Fair CLR 32.8 8.3 22% 31 76.17 1009.0
04 09:53 SW 17 16.09 Fair CLR 30 10.6 30% 29 76.17 1009.1
04 08:53 SW 19 16.09 Fair CLR 26.1 12.2 42% 26 76.17 1009.6
04 07:53 SW 19 16.09 Fair CLR 22.2 13.3 57% 76.12 1009.3
04 06:53 SW 13 16.09 Fair CLR 18.9 13.3 70% 76.07 1008.4
04 05:53 SW 13 16.09 Fair CLR 19.4 12.8 21.1 18.9 66% 76.02 1007.2
04 04:53 S 15 16.09 Fair CLR 20 13.3 65% 76.02 1006.7
04 03:53 S 20 16.09 Fair CLR 20.6 13.3 63% 76 1006.7
04 02:53 Calm 16.09 Fair CLR 20 13.3 65% 76 1006.7
04 01:53 SE 15 16.09 Fair CLR 20 13.9 68% 76.05 1007.1
04 00:53 SE 19 16.09 Fair CLR 21.1 13.3 61% 76.07 1007.8
03 23:53 SE 15 16.09 Fair CLR 20.6 12.2 32.8 20.6 59% 76.1 1008.5
03 22:53 SE 15 16.09 Fair CLR 21.7 12.8 57% 76.12 1008.6
03 21:53 E 13 16.09 Fair CLR 22.2 12.8 55% 76.15 1009.2
03 20:53 E 15 16.09 Fair CLR 22.8 11.1 48% 76.12 1009.0
03 19:53 E 11 16.09 Fair CLR 23.9 11.1 45% 25 76.05 1008.7
03 18:53 E 11 16.09 Fair CLR 28.9 11.7 34% 28 76.02 1008.2
03 16:53 SW 17 16.09 Fair CLR 33.9 5 16% 32 76.05 1007.8
03 15:53 Calm 16.09 Fair CLR 33.3 6.7 19% 31 76.05 1007.8
03 14:53 NW 11 16.09 Fair CLR 32.8 8.3 22% 31 76.1 1008.1
03 13:53 NE 11 16.09 Fair CLR 32.8 8.3 22% 31 76.12 1008.5
03 12:53 N 20 16.09 Fair CLR 31.7 10 26% 30 76.15 1008.6
03 11:53 NW 15 G 33 16.09 Fair CLR 30.6 10.6 31.1 13.9 29% 29 76.23 1009.6
03 10:53 NW 20 16.09 Fair CLR 28.9 12.8 37% 28 76.23 1010.1
03 09:53 NW 22 16.09 Fair CLR 26.1 12.2 42% 26 76.2 1010.2
03 08:53 NW 26 16.09 Fair CLR 23.3 11.7 48% 76.17 1010.1
03 07:53 W 20 16.09 Fair CLR 19.4 11.7 61% 76.17 1010.4
03 06:53 NW 17 16.09 Fair CLR 15.6 11.7 78% 76.1 1009.4
03 05:53 W 20 16.09 Fair CLR 14.4 11.1 22.8 14.4 81% 76.05 1008.2
03 04:53 W 15 16.09 Fair CLR 15 12.8 87% 76.02 1007.5
03 03:53 S 13 16.09 Fair CLR 16.1 12.8 81% 76 1007.0
03 02:53 W 9 16.09 Fair CLR 19.4 13.9 71% 76 1006.8
03 01:53 S 17 16.09 Fair CLR 19.4 13.9 71% 75.95 1006.3
03 00:53 S 20 16.09 Fair CLR 21.1 13.9 64% 75.97 1006.5
02 23:53 S 20 16.09 Fair CLR 22.8 12.8 32.2 20 53% 76.02 1006.9
02 22:53 S 15 16.09 Fair CLR 20 9.4 51% 76.05 1008.0
02 21:53 S 15 16.09 Fair CLR 20 10 53% 76.07 1008.7
02 20:53 S 17 16.09 Fair CLR 22.2 9.4 44% 76.07 1008.7
02 19:53 S 15 16.09 Fair CLR 22.8 11.1 48% 76.02 1008.7
02 18:53 SW 13 16.09 Fair CLR 27.8 10.6 34% 27 76.02 1008.1
02 17:53 SW 19 16.09 Fair CLR 32.2 8.9 33.3 29.4 24% 30 76.02 1007.5
02 16:53 SW 17 16.09 Partly Cloudy SCT110 32.8 11.1 26% 31 76.02 1007.6
02 15:53 SW 19 16.09 Fair CLR 32.8 12.2 28% 32 76.05 1007.8
02 14:53 Calm 16.09 Fair CLR 32.2 12.2 29% 31 76.07 1008.2
02 13:53 Vrbl 6 16.09 Fair CLR 31.7 12.8 31% 31 76.12 1009.0
02 12:53 SW 13 16.09 Fair CLR 30.6 12.8 34% 30 76.2 1009.7
02 11:53 SW 7 16.09 Fair CLR 29.4 13.9 29.4 15 39% 29 76.23 1010.3
02 10:53 NW 11 16.09 Fair CLR 27.8 14.4 44% 28 76.25 1010.8
02 09:53 SW 6 16.09 Fair CLR 24.4 15.6 58% 26 76.25 1011.2
02 08:53 Calm 16.09 Fair CLR 21.7 16.1 71% 76.28 1011.7
02 07:53 W 9 16.09 Fair CLR 18.3 15 81% 76.28 1012.1
02 06:53 Calm 16.09 Fair CLR 15.6 13.9 90% 76.25 1011.3
02 05:53 SW 11 16.09 Fair CLR 16.1 13.9 19.4 15.6 87% 76.23 1010.4
02 04:53 S 11 16.09 Fair CLR 16.1 13.9 87% 76.2 1010.2
02 03:53 S 13 16.09 Fair CLR 16.1 14.4 90% 76.23 1010.4
02 02:53 S 13 16.09 Fair CLR 16.1 14.4 90% 76.23 1010.7
02 01:53 SW 11 16.09 Fair CLR 17.2 14.4 84% 76.23 1010.5
Date Time (mdt) Wind (kph) Vis. (km) Weather Sky Cond. Air Dwpt Max. Min. Relative Humidity Wind Chill (°C) Heat Index (°C) altimeter (cm) sea level (mb) 1 hr 3 hr 6 hr
6 hour
Temperature (ºC) Pressure Precipitation (cm)